sensor_id;sensor_type;location;lat;lon;timestamp;P1;durP1;ratioP1;P2;durP2;ratioP2
13250;SDS011;6692;50.710;7.180;2023-03-01T00:00:43;12.40;;;10.47;;
13250;SDS011;6692;50.710;7.180;2023-03-01T00:02:44;12.87;;;10.57;;
13250;SDS011;6692;50.710;7.180;2023-03-01T00:04:45;12.63;;;10.10;;
13250;SDS011;6692;50.710;7.180;2023-03-01T00:06:46;13.93;;;10.37;;
13250;SDS011;6692;50.710;7.180;2023-03-01T00:08:47;11.30;;;9.90;;
13250;SDS011;6692;50.710;7.180;2023-03-01T00:10:48;13.87;;;10.83;;
13250;SDS011;6692;50.710;7.180;2023-03-01T00:12:49;14.35;;;11.63;;
13250;SDS011;6692;50.710;7.180;2023-03-01T00:14:50;12.43;;;9.73;;
13250;SDS011;6692;50.710;7.180;2023-03-01T00:16:51;12.20;;;9.93;;
13250;SDS011;6692;50.710;7.180;2023-03-01T00:18:51;13.57;;;10.77;;
13250;SDS011;6692;50.710;7.180;2023-03-01T00:20:53;12.13;;;9.80;;
13250;SDS011;6692;50.710;7.180;2023-03-01T00:22:53;11.85;;;9.48;;
13250;SDS011;6692;50.710;7.180;2023-03-01T00:24:54;11.37;;;9.73;;
13250;SDS011;6692;50.710;7.180;2023-03-01T00:26:55;11.47;;;9.90;;
13250;SDS011;6692;50.710;7.180;2023-03-01T00:28:56;11.27;;;9.33;;
13250;SDS011;6692;50.710;7.180;2023-03-01T00:30:56;11.90;;;9.90;;
13250;SDS011;6692;50.710;7.180;2023-03-01T00:32:57;11.53;;;9.40;;
13250;SDS011;6692;50.710;7.180;2023-03-01T00:34:57;10.73;;;8.37;;
13250;SDS011;6692;50.710;7.180;2023-03-01T00:36:58;10.17;;;8.93;;
13250;SDS011;6692;50.710;7.180;2023-03-01T00:39:00;10.27;;;8.83;;
13250;SDS011;6692;50.710;7.180;2023-03-01T00:41:03;11.82;;;8.93;;
13250;SDS011;6692;50.710;7.180;2023-03-01T00:43:03;10.77;;;9.15;;
13250;SDS011;6692;50.710;7.180;2023-03-01T00:45:04;11.00;;;8.77;;
13250;SDS011;6692;50.710;7.180;2023-03-01T00:47:06;9.40;;;7.70;;
13250;SDS011;6692;50.710;7.180;2023-03-01T00:49:07;9.37;;;7.73;;
13250;SDS011;6692;50.710;7.180;2023-03-01T00:51:08;11.20;;;8.70;;
13250;SDS011;6692;50.710;7.180;2023-03-01T00:53:10;10.48;;;8.68;;
13250;SDS011;6692;50.710;7.180;2023-03-01T00:55:11;10.30;;;8.43;;
13250;SDS011;6692;50.710;7.180;2023-03-01T00:57:13;9.77;;;8.40;;
13250;SDS011;6692;50.710;7.180;2023-03-01T00:59:14;9.50;;;8.23;;
13250;SDS011;6692;50.710;7.180;2023-03-01T01:01:16;10.05;;;8.30;;
13250;SDS011;6692;50.710;7.180;2023-03-01T01:03:17;10.15;;;8.82;;
13250;SDS011;6692;50.710;7.180;2023-03-01T01:05:18;10.37;;;9.10;;
13250;SDS011;6692;50.710;7.180;2023-03-01T01:07:18;11.40;;;9.37;;
13250;SDS011;6692;50.710;7.180;2023-03-01T01:09:19;11.73;;;8.83;;
13250;SDS011;6692;50.710;7.180;2023-03-01T01:11:21;11.73;;;8.70;;
13250;SDS011;6692;50.710;7.180;2023-03-01T01:13:20;8.67;;;7.63;;
13250;SDS011;6692;50.710;7.180;2023-03-01T01:15:21;9.40;;;8.43;;
13250;SDS011;6692;50.710;7.180;2023-03-01T01:17:22;10.30;;;8.80;;
13250;SDS011;6692;50.710;7.180;2023-03-01T01:19:22;10.60;;;9.40;;
13250;SDS011;6692;50.710;7.180;2023-03-01T01:21:23;10.60;;;8.70;;
13250;SDS011;6692;50.710;7.180;2023-03-01T01:23:24;9.80;;;8.20;;
13250;SDS011;6692;50.710;7.180;2023-03-01T01:25:24;11.13;;;8.53;;
13250;SDS011;6692;50.710;7.180;2023-03-01T01:27:25;9.33;;;7.93;;
13250;SDS011;6692;50.710;7.180;2023-03-01T01:29:25;10.90;;;9.17;;
13250;SDS011;6692;50.710;7.180;2023-03-01T01:31:26;9.53;;;8.37;;
13250;SDS011;6692;50.710;7.180;2023-03-01T01:33:27;9.93;;;8.23;;
13250;SDS011;6692;50.710;7.180;2023-03-01T01:35:28;10.17;;;8.30;;
13250;SDS011;6692;50.710;7.180;2023-03-01T01:37:29;11.55;;;8.30;;
13250;SDS011;6692;50.710;7.180;2023-03-01T01:39:29;11.17;;;9.03;;
13250;SDS011;6692;50.710;7.180;2023-03-01T01:41:31;9.93;;;8.70;;
13250;SDS011;6692;50.710;7.180;2023-03-01T01:55:41;10.52;;;8.88;;
13250;SDS011;6692;50.710;7.180;2023-03-01T01:57:41;12.63;;;9.40;;
13250;SDS011;6692;50.710;7.180;2023-03-01T01:59:42;10.53;;;8.93;;
13250;SDS011;6692;50.710;7.180;2023-03-01T02:01:42;12.23;;;9.82;;
13250;SDS011;6692;50.710;7.180;2023-03-01T02:03:43;11.00;;;9.50;;
13250;SDS011;6692;50.710;7.180;2023-03-01T02:05:51;11.63;;;8.80;;
13250;SDS011;6692;50.710;7.180;2023-03-01T02:08:07;11.65;;;9.25;;
13250;SDS011;6692;50.710;7.180;2023-03-01T02:10:08;13.17;;;8.80;;
13250;SDS011;6692;50.710;7.180;2023-03-01T02:12:09;11.88;;;8.80;;
13250;SDS011;6692;50.710;7.180;2023-03-01T02:14:10;11.20;;;9.07;;
13250;SDS011;6692;50.710;7.180;2023-03-01T02:16:11;11.87;;;9.13;;
13250;SDS011;6692;50.710;7.180;2023-03-01T02:18:14;10.70;;;9.60;;
13250;SDS011;6692;50.710;7.180;2023-03-01T02:20:16;10.35;;;8.55;;
13250;SDS011;6692;50.710;7.180;2023-03-01T02:22:22;11.93;;;8.73;;
13250;SDS011;6692;50.710;7.180;2023-03-01T02:24:32;10.27;;;8.75;;
13250;SDS011;6692;50.710;7.180;2023-03-01T02:26:33;10.38;;;8.82;;
13250;SDS011;6692;50.710;7.180;2023-03-01T02:28:35;10.68;;;8.95;;
13250;SDS011;6692;50.710;7.180;2023-03-01T02:30:36;11.12;;;8.73;;
13250;SDS011;6692;50.710;7.180;2023-03-01T02:32:36;12.50;;;9.27;;
13250;SDS011;6692;50.710;7.180;2023-03-01T02:34:37;10.13;;;8.20;;
13250;SDS011;6692;50.710;7.180;2023-03-01T02:36:39;11.50;;;9.93;;
13250;SDS011;6692;50.710;7.180;2023-03-01T02:38:40;12.55;;;9.27;;
13250;SDS011;6692;50.710;7.180;2023-03-01T02:40:40;10.30;;;8.95;;
13250;SDS011;6692;50.710;7.180;2023-03-01T02:42:48;10.13;;;9.13;;
13250;SDS011;6692;50.710;7.180;2023-03-01T02:44:48;11.88;;;8.35;;
13250;SDS011;6692;50.710;7.180;2023-03-01T02:46:49;9.63;;;7.77;;
13250;SDS011;6692;50.710;7.180;2023-03-01T02:48:52;11.10;;;9.37;;
13250;SDS011;6692;50.710;7.180;2023-03-01T02:51:02;11.02;;;8.88;;
13250;SDS011;6692;50.710;7.180;2023-03-01T02:53:04;10.27;;;8.82;;
13250;SDS011;6692;50.710;7.180;2023-03-01T02:55:09;9.75;;;8.10;;
13250;SDS011;6692;50.710;7.180;2023-03-01T02:57:09;9.70;;;8.40;;
13250;SDS011;6692;50.710;7.180;2023-03-01T02:59:10;9.73;;;8.07;;
13250;SDS011;6692;50.710;7.180;2023-03-01T03:01:11;9.80;;;8.75;;
13250;SDS011;6692;50.710;7.180;2023-03-01T03:03:13;11.80;;;8.33;;
13250;SDS011;6692;50.710;7.180;2023-03-01T03:05:15;9.55;;;8.43;;
13250;SDS011;6692;50.710;7.180;2023-03-01T03:07:15;9.93;;;8.27;;
13250;SDS011;6692;50.710;7.180;2023-03-01T03:09:17;10.88;;;8.73;;
13250;SDS011;6692;50.710;7.180;2023-03-01T03:11:18;10.40;;;8.97;;
13250;SDS011;6692;50.710;7.180;2023-03-01T03:13:18;12.10;;;9.40;;
13250;SDS011;6692;50.710;7.180;2023-03-01T03:15:19;12.13;;;9.30;;
13250;SDS011;6692;50.710;7.180;2023-03-01T03:17:20;12.63;;;9.57;;
13250;SDS011;6692;50.710;7.180;2023-03-01T03:19:20;11.27;;;9.00;;
13250;SDS011;6692;50.710;7.180;2023-03-01T03:21:21;11.67;;;9.47;;
13250;SDS011;6692;50.710;7.180;2023-03-01T03:23:22;12.50;;;9.77;;
13250;SDS011;6692;50.710;7.180;2023-03-01T03:25:23;10.77;;;9.27;;
13250;SDS011;6692;50.710;7.180;2023-03-01T03:27:24;12.73;;;9.85;;
13250;SDS011;6692;50.710;7.180;2023-03-01T03:29:24;11.67;;;9.10;;
13250;SDS011;6692;50.710;7.180;2023-03-01T03:31:25;9.97;;;8.67;;
13250;SDS011;6692;50.710;7.180;2023-03-01T03:33:26;12.20;;;9.23;;
13250;SDS011;6692;50.710;7.180;2023-03-01T03:35:28;11.13;;;8.90;;
13250;SDS011;6692;50.710;7.180;2023-03-01T03:37:29;10.85;;;8.65;;
13250;SDS011;6692;50.710;7.180;2023-03-01T03:39:35;9.77;;;8.18;;
13250;SDS011;6692;50.710;7.180;2023-03-01T03:41:37;12.40;;;8.90;;
13250;SDS011;6692;50.710;7.180;2023-03-01T03:43:39;10.90;;;8.82;;
13250;SDS011;6692;50.710;7.180;2023-03-01T03:45:39;10.90;;;8.63;;
13250;SDS011;6692;50.710;7.180;2023-03-01T03:47:40;10.80;;;8.47;;
13250;SDS011;6692;50.710;7.180;2023-03-01T03:49:40;12.10;;;10.23;;
13250;SDS011;6692;50.710;7.180;2023-03-01T03:51:41;11.43;;;8.30;;
13250;SDS011;6692;50.710;7.180;2023-03-01T03:53:43;10.63;;;8.93;;
13250;SDS011;6692;50.710;7.180;2023-03-01T03:55:44;11.40;;;9.25;;
13250;SDS011;6692;50.710;7.180;2023-03-01T03:57:45;11.40;;;9.23;;
13250;SDS011;6692;50.710;7.180;2023-03-01T03:59:45;12.03;;;9.83;;
13250;SDS011;6692;50.710;7.180;2023-03-01T04:01:46;11.90;;;9.43;;
13250;SDS011;6692;50.710;7.180;2023-03-01T04:03:46;10.47;;;8.67;;
13250;SDS011;6692;50.710;7.180;2023-03-01T04:05:47;13.20;;;9.50;;
13250;SDS011;6692;50.710;7.180;2023-03-01T04:07:48;12.80;;;9.73;;
13250;SDS011;6692;50.710;7.180;2023-03-01T04:09:48;11.33;;;9.20;;
13250;SDS011;6692;50.710;7.180;2023-03-01T04:11:50;11.50;;;9.23;;
13250;SDS011;6692;50.710;7.180;2023-03-01T04:13:51;11.05;;;9.23;;
13250;SDS011;6692;50.710;7.180;2023-03-01T04:15:51;11.70;;;9.50;;
13250;SDS011;6692;50.710;7.180;2023-03-01T04:17:52;12.23;;;10.67;;
13250;SDS011;6692;50.710;7.180;2023-03-01T04:19:52;13.23;;;10.10;;
13250;SDS011;6692;50.710;7.180;2023-03-01T04:21:53;11.20;;;9.70;;
13250;SDS011;6692;50.710;7.180;2023-03-01T04:23:54;12.60;;;9.30;;
13250;SDS011;6692;50.710;7.180;2023-03-01T04:25:55;13.00;;;10.37;;
13250;SDS011;6692;50.710;7.180;2023-03-01T04:27:55;12.07;;;9.50;;
13250;SDS011;6692;50.710;7.180;2023-03-01T04:29:56;11.60;;;9.77;;
13250;SDS011;6692;50.710;7.180;2023-03-01T04:31:56;11.20;;;9.60;;
13250;SDS011;6692;50.710;7.180;2023-03-01T04:33:57;12.00;;;9.13;;
13250;SDS011;6692;50.710;7.180;2023-03-01T04:35:58;11.70;;;9.57;;
13250;SDS011;6692;50.710;7.180;2023-03-01T04:37:58;11.30;;;9.70;;
13250;SDS011;6692;50.710;7.180;2023-03-01T04:39:59;11.20;;;9.93;;
13250;SDS011;6692;50.710;7.180;2023-03-01T04:41:59;13.10;;;9.33;;
13250;SDS011;6692;50.710;7.180;2023-03-01T04:44:01;12.10;;;10.03;;
13250;SDS011;6692;50.710;7.180;2023-03-01T04:46:03;12.13;;;9.65;;
13250;SDS011;6692;50.710;7.180;2023-03-01T04:48:05;11.40;;;9.93;;
13250;SDS011;6692;50.710;7.180;2023-03-01T04:50:06;12.50;;;9.43;;
13250;SDS011;6692;50.710;7.180;2023-03-01T04:52:07;12.57;;;10.25;;
13250;SDS011;6692;50.710;7.180;2023-03-01T04:54:09;13.40;;;10.80;;
13250;SDS011;6692;50.710;7.180;2023-03-01T04:56:10;13.57;;;10.77;;
13250;SDS011;6692;50.710;7.180;2023-03-01T04:58:10;12.47;;;9.97;;
13250;SDS011;6692;50.710;7.180;2023-03-01T05:00:11;13.00;;;10.93;;
13250;SDS011;6692;50.710;7.180;2023-03-01T05:02:19;13.70;;;10.02;;
13250;SDS011;6692;50.710;7.180;2023-03-01T05:04:19;14.37;;;10.97;;
13250;SDS011;6692;50.710;7.180;2023-03-01T05:06:20;11.60;;;10.40;;
13250;SDS011;6692;50.710;7.180;2023-03-01T05:08:21;13.23;;;10.13;;
13250;SDS011;6692;50.710;7.180;2023-03-01T05:10:22;13.40;;;10.67;;
13250;SDS011;6692;50.710;7.180;2023-03-01T05:12:22;15.27;;;10.67;;
13250;SDS011;6692;50.710;7.180;2023-03-01T05:14:23;11.67;;;9.80;;
13250;SDS011;6692;50.710;7.180;2023-03-01T05:16:23;11.47;;;9.17;;
13250;SDS011;6692;50.710;7.180;2023-03-01T05:18:24;11.67;;;10.20;;
13250;SDS011;6692;50.710;7.180;2023-03-01T05:20:29;14.13;;;10.20;;
13250;SDS011;6692;50.710;7.180;2023-03-01T05:22:29;12.85;;;9.82;;
13250;SDS011;6692;50.710;7.180;2023-03-01T05:24:30;13.13;;;10.33;;
13250;SDS011;6692;50.710;7.180;2023-03-01T05:26:30;12.30;;;10.20;;
13250;SDS011;6692;50.710;7.180;2023-03-01T05:28:31;12.57;;;9.97;;
13250;SDS011;6692;50.710;7.180;2023-03-01T05:30:32;13.23;;;10.33;;
13250;SDS011;6692;50.710;7.180;2023-03-01T05:32:32;12.10;;;9.63;;
13250;SDS011;6692;50.710;7.180;2023-03-01T05:34:34;12.77;;;10.37;;
13250;SDS011;6692;50.710;7.180;2023-03-01T05:36:33;13.70;;;9.90;;
13250;SDS011;6692;50.710;7.180;2023-03-01T05:38:34;12.07;;;9.93;;
13250;SDS011;6692;50.710;7.180;2023-03-01T05:40:35;11.40;;;9.93;;
13250;SDS011;6692;50.710;7.180;2023-03-01T05:42:35;13.23;;;10.53;;
13250;SDS011;6692;50.710;7.180;2023-03-01T05:44:36;12.03;;;10.03;;
13250;SDS011;6692;50.710;7.180;2023-03-01T05:46:37;12.67;;;10.17;;
13250;SDS011;6692;50.710;7.180;2023-03-01T05:48:37;14.57;;;10.03;;
13250;SDS011;6692;50.710;7.180;2023-03-01T05:50:40;15.93;;;10.67;;
13250;SDS011;6692;50.710;7.180;2023-03-01T05:52:40;13.60;;;10.70;;
13250;SDS011;6692;50.710;7.180;2023-03-01T05:54:40;11.67;;;10.30;;
13250;SDS011;6692;50.710;7.180;2023-03-01T05:56:42;14.10;;;10.03;;
13250;SDS011;6692;50.710;7.180;2023-03-01T05:58:43;14.50;;;10.75;;
13250;SDS011;6692;50.710;7.180;2023-03-01T06:00:44;14.68;;;10.98;;
13250;SDS011;6692;50.710;7.180;2023-03-01T06:02:45;13.17;;;10.73;;
13250;SDS011;6692;50.710;7.180;2023-03-01T06:04:46;11.00;;;9.52;;
13250;SDS011;6692;50.710;7.180;2023-03-01T06:06:46;12.37;;;10.63;;
13250;SDS011;6692;50.710;7.180;2023-03-01T06:08:47;11.20;;;9.53;;
13250;SDS011;6692;50.710;7.180;2023-03-01T06:10:48;13.20;;;10.23;;
13250;SDS011;6692;50.710;7.180;2023-03-01T06:12:48;11.67;;;9.90;;
13250;SDS011;6692;50.710;7.180;2023-03-01T06:14:50;12.23;;;10.30;;
13250;SDS011;6692;50.710;7.180;2023-03-01T06:16:51;14.70;;;10.52;;
13250;SDS011;6692;50.710;7.180;2023-03-01T06:18:51;14.10;;;10.73;;
13250;SDS011;6692;50.710;7.180;2023-03-01T06:20:53;12.90;;;10.77;;
13250;SDS011;6692;50.710;7.180;2023-03-01T06:22:53;13.90;;;11.57;;
13250;SDS011;6692;50.710;7.180;2023-03-01T06:24:53;15.53;;;11.77;;
13250;SDS011;6692;50.710;7.180;2023-03-01T06:26:54;13.10;;;10.53;;
13250;SDS011;6692;50.710;7.180;2023-03-01T06:28:54;15.23;;;11.23;;
13250;SDS011;6692;50.710;7.180;2023-03-01T06:30:55;14.63;;;10.60;;
13250;SDS011;6692;50.710;7.180;2023-03-01T06:32:56;14.87;;;10.60;;
13250;SDS011;6692;50.710;7.180;2023-03-01T06:34:57;13.60;;;10.90;;
13250;SDS011;6692;50.710;7.180;2023-03-01T06:36:58;14.65;;;10.88;;
13250;SDS011;6692;50.710;7.180;2023-03-01T06:38:59;15.73;;;10.47;;
13250;SDS011;6692;50.710;7.180;2023-03-01T06:40:59;14.07;;;10.77;;
13250;SDS011;6692;50.710;7.180;2023-03-01T06:43:01;15.03;;;11.10;;
13250;SDS011;6692;50.710;7.180;2023-03-01T06:45:02;15.02;;;11.73;;
13250;SDS011;6692;50.710;7.180;2023-03-01T06:47:03;16.00;;;12.23;;
13250;SDS011;6692;50.710;7.180;2023-03-01T06:49:04;14.67;;;11.20;;
13250;SDS011;6692;50.710;7.180;2023-03-01T06:51:05;16.23;;;11.87;;
13250;SDS011;6692;50.710;7.180;2023-03-01T06:53:05;15.13;;;11.30;;
13250;SDS011;6692;50.710;7.180;2023-03-01T06:55:06;14.87;;;11.90;;
13250;SDS011;6692;50.710;7.180;2023-03-01T06:57:07;14.95;;;11.05;;
13250;SDS011;6692;50.710;7.180;2023-03-01T06:59:09;16.60;;;11.87;;
13250;SDS011;6692;50.710;7.180;2023-03-01T07:01:10;13.88;;;11.10;;
13250;SDS011;6692;50.710;7.180;2023-03-01T07:03:11;14.40;;;10.93;;
13250;SDS011;6692;50.710;7.180;2023-03-01T07:05:12;15.20;;;11.10;;
13250;SDS011;6692;50.710;7.180;2023-03-01T07:07:12;14.40;;;11.03;;
13250;SDS011;6692;50.710;7.180;2023-03-01T07:09:13;13.37;;;10.87;;
13250;SDS011;6692;50.710;7.180;2023-03-01T07:11:14;16.93;;;11.50;;
13250;SDS011;6692;50.710;7.180;2023-03-01T07:13:14;14.03;;;11.03;;
13250;SDS011;6692;50.710;7.180;2023-03-01T07:15:15;16.20;;;11.43;;
13250;SDS011;6692;50.710;7.180;2023-03-01T07:17:16;14.87;;;11.60;;
13250;SDS011;6692;50.710;7.180;2023-03-01T07:19:16;14.80;;;11.57;;
13250;SDS011;6692;50.710;7.180;2023-03-01T07:21:17;14.07;;;10.90;;
13250;SDS011;6692;50.710;7.180;2023-03-01T07:23:18;16.07;;;11.63;;
13250;SDS011;6692;50.710;7.180;2023-03-01T07:25:19;15.95;;;11.82;;
13250;SDS011;6692;50.710;7.180;2023-03-01T07:27:21;15.57;;;12.53;;
13250;SDS011;6692;50.710;7.180;2023-03-01T07:29:22;18.58;;;13.25;;
13250;SDS011;6692;50.710;7.180;2023-03-01T07:31:23;16.47;;;12.60;;
13250;SDS011;6692;50.710;7.180;2023-03-01T07:33:24;16.93;;;13.07;;
13250;SDS011;6692;50.710;7.180;2023-03-01T07:35:26;16.98;;;13.93;;
13250;SDS011;6692;50.710;7.180;2023-03-01T07:37:26;15.00;;;12.73;;
13250;SDS011;6692;50.710;7.180;2023-03-01T07:39:27;17.53;;;13.40;;
13250;SDS011;6692;50.710;7.180;2023-03-01T07:41:29;19.10;;;13.85;;
13250;SDS011;6692;50.710;7.180;2023-03-01T07:43:29;19.00;;;13.40;;
13250;SDS011;6692;50.710;7.180;2023-03-01T07:45:30;20.00;;;14.57;;
13250;SDS011;6692;50.710;7.180;2023-03-01T07:47:30;20.10;;;14.47;;
13250;SDS011;6692;50.710;7.180;2023-03-01T07:49:31;18.77;;;13.50;;
13250;SDS011;6692;50.710;7.180;2023-03-01T07:51:32;19.17;;;14.30;;
13250;SDS011;6692;50.710;7.180;2023-03-01T07:53:32;18.03;;;13.43;;
13250;SDS011;6692;50.710;7.180;2023-03-01T07:55:33;18.60;;;13.57;;
13250;SDS011;6692;50.710;7.180;2023-03-01T07:57:34;15.70;;;11.87;;
13250;SDS011;6692;50.710;7.180;2023-03-01T07:59:35;19.17;;;13.37;;
13250;SDS011;6692;50.710;7.180;2023-03-01T08:01:36;19.37;;;13.90;;
13250;SDS011;6692;50.710;7.180;2023-03-01T08:03:36;18.43;;;13.63;;
13250;SDS011;6692;50.710;7.180;2023-03-01T08:05:37;16.23;;;13.07;;
13250;SDS011;6692;50.710;7.180;2023-03-01T08:07:38;14.93;;;12.30;;
13250;SDS011;6692;50.710;7.180;2023-03-01T08:09:38;18.00;;;13.90;;
13250;SDS011;6692;50.710;7.180;2023-03-01T08:11:39;19.70;;;14.27;;
13250;SDS011;6692;50.710;7.180;2023-03-01T08:13:41;20.57;;;15.00;;
13250;SDS011;6692;50.710;7.180;2023-03-01T08:15:42;22.62;;;15.82;;
13250;SDS011;6692;50.710;7.180;2023-03-01T08:17:43;26.08;;;17.42;;
13250;SDS011;6692;50.710;7.180;2023-03-01T08:19:43;27.03;;;17.63;;
13250;SDS011;6692;50.710;7.180;2023-03-01T08:21:45;27.07;;;19.27;;
13250;SDS011;6692;50.710;7.180;2023-03-01T08:23:45;26.02;;;17.87;;
13250;SDS011;6692;50.710;7.180;2023-03-01T08:25:47;27.97;;;18.87;;
13250;SDS011;6692;50.710;7.180;2023-03-01T08:27:47;27.52;;;19.27;;
13250;SDS011;6692;50.710;7.180;2023-03-01T08:29:48;28.30;;;19.00;;
13250;SDS011;6692;50.710;7.180;2023-03-01T08:31:49;27.67;;;18.87;;
13250;SDS011;6692;50.710;7.180;2023-03-01T08:33:50;26.40;;;19.03;;
13250;SDS011;6692;50.710;7.180;2023-03-01T08:35:52;26.08;;;18.42;;
13250;SDS011;6692;50.710;7.180;2023-03-01T08:37:52;24.75;;;19.02;;
13250;SDS011;6692;50.710;7.180;2023-03-01T08:39:53;23.60;;;17.10;;
13250;SDS011;6692;50.710;7.180;2023-03-01T08:41:54;24.70;;;17.53;;
13250;SDS011;6692;50.710;7.180;2023-03-01T08:43:55;22.43;;;15.90;;
13250;SDS011;6692;50.710;7.180;2023-03-01T08:45:57;22.02;;;16.17;;
13250;SDS011;6692;50.710;7.180;2023-03-01T08:47:57;23.20;;;16.37;;
13250;SDS011;6692;50.710;7.180;2023-03-01T08:49:58;24.10;;;17.80;;
13250;SDS011;6692;50.710;7.180;2023-03-01T08:51:59;23.73;;;17.03;;
13250;SDS011;6692;50.710;7.180;2023-03-01T08:54:00;22.80;;;16.98;;
13250;SDS011;6692;50.710;7.180;2023-03-01T08:56:01;24.60;;;18.07;;
13250;SDS011;6692;50.710;7.180;2023-03-01T08:58:01;22.70;;;16.97;;
13250;SDS011;6692;50.710;7.180;2023-03-01T09:00:02;25.83;;;18.97;;
13250;SDS011;6692;50.710;7.180;2023-03-01T09:02:04;23.15;;;17.10;;
13250;SDS011;6692;50.710;7.180;2023-03-01T09:04:05;22.37;;;15.80;;
13250;SDS011;6692;50.710;7.180;2023-03-01T09:06:06;23.00;;;17.73;;
13250;SDS011;6692;50.710;7.180;2023-03-01T09:08:06;22.57;;;17.60;;
13250;SDS011;6692;50.710;7.180;2023-03-01T09:10:08;22.27;;;17.33;;
13250;SDS011;6692;50.710;7.180;2023-03-01T09:12:11;26.15;;;18.15;;
13250;SDS011;6692;50.710;7.180;2023-03-01T09:14:12;27.67;;;18.70;;
13250;SDS011;6692;50.710;7.180;2023-03-01T09:16:14;23.60;;;18.02;;
13250;SDS011;6692;50.710;7.180;2023-03-01T09:18:13;26.37;;;19.67;;
13250;SDS011;6692;50.710;7.180;2023-03-01T09:20:14;26.80;;;19.30;;
13250;SDS011;6692;50.710;7.180;2023-03-01T09:22:16;21.12;;;17.20;;
13250;SDS011;6692;50.710;7.180;2023-03-01T09:24:18;24.83;;;18.10;;
13250;SDS011;6692;50.710;7.180;2023-03-01T09:26:18;23.77;;;17.67;;
13250;SDS011;6692;50.710;7.180;2023-03-01T09:28:18;24.10;;;16.60;;
13250;SDS011;6692;50.710;7.180;2023-03-01T09:30:19;23.40;;;17.20;;
13250;SDS011;6692;50.710;7.180;2023-03-01T09:32:20;23.97;;;17.27;;
13250;SDS011;6692;50.710;7.180;2023-03-01T09:34:21;27.33;;;18.70;;
13250;SDS011;6692;50.710;7.180;2023-03-01T09:36:23;27.33;;;18.65;;
13250;SDS011;6692;50.710;7.180;2023-03-01T09:38:23;24.05;;;17.75;;
13250;SDS011;6692;50.710;7.180;2023-03-01T09:40:24;25.17;;;17.30;;
13250;SDS011;6692;50.710;7.180;2023-03-01T09:42:25;24.23;;;18.47;;
13250;SDS011;6692;50.710;7.180;2023-03-01T09:44:30;28.37;;;19.43;;
13250;SDS011;6692;50.710;7.180;2023-03-01T09:46:32;25.67;;;18.33;;
13250;SDS011;6692;50.710;7.180;2023-03-01T09:48:33;24.07;;;19.17;;
13250;SDS011;6692;50.710;7.180;2023-03-01T09:50:34;24.27;;;17.42;;
13250;SDS011;6692;50.710;7.180;2023-03-01T09:52:38;24.23;;;17.33;;
13250;SDS011;6692;50.710;7.180;2023-03-01T09:54:38;23.45;;;16.05;;
13250;SDS011;6692;50.710;7.180;2023-03-01T09:56:41;20.40;;;16.27;;
13250;SDS011;6692;50.710;7.180;2023-03-01T09:58:51;22.87;;;17.08;;
13250;SDS011;6692;50.710;7.180;2023-03-01T10:00:49;27.00;;;18.92;;
13250;SDS011;6692;50.710;7.180;2023-03-01T10:02:51;22.43;;;17.37;;
13250;SDS011;6692;50.710;7.180;2023-03-01T10:04:53;25.95;;;18.37;;
13250;SDS011;6692;50.710;7.180;2023-03-01T10:09:12;24.35;;;17.37;;
13250;SDS011;6692;50.710;7.180;2023-03-01T10:11:21;23.60;;;17.73;;
13250;SDS011;6692;50.710;7.180;2023-03-01T10:13:58;23.62;;;17.62;;
13250;SDS011;6692;50.710;7.180;2023-03-01T10:15:48;24.02;;;17.17;;
13250;SDS011;6692;50.710;7.180;2023-03-01T10:17:52;24.98;;;18.35;;
13250;SDS011;6692;50.710;7.180;2023-03-01T10:19:52;27.33;;;18.02;;
13250;SDS011;6692;50.710;7.180;2023-03-01T10:21:53;24.43;;;17.57;;
13250;SDS011;6692;50.710;7.180;2023-03-01T10:24:04;26.00;;;17.57;;
13250;SDS011;6692;50.710;7.180;2023-03-01T10:25:56;23.77;;;18.07;;
13250;SDS011;6692;50.710;7.180;2023-03-01T10:28:02;23.23;;;17.33;;
13250;SDS011;6692;50.710;7.180;2023-03-01T10:30:05;24.00;;;17.50;;
13250;SDS011;6692;50.710;7.180;2023-03-01T10:32:03;21.60;;;15.80;;
13250;SDS011;6692;50.710;7.180;2023-03-01T10:36:10;22.75;;;16.87;;
13250;SDS011;6692;50.710;7.180;2023-03-01T10:38:11;22.53;;;17.63;;
13250;SDS011;6692;50.710;7.180;2023-03-01T10:40:12;23.13;;;16.60;;
13250;SDS011;6692;50.710;7.180;2023-03-01T10:42:19;22.40;;;16.77;;
13250;SDS011;6692;50.710;7.180;2023-03-01T10:46:34;24.33;;;18.12;;
13250;SDS011;6692;50.710;7.180;2023-03-01T10:48:34;24.02;;;17.50;;
13250;SDS011;6692;50.710;7.180;2023-03-01T10:50:35;23.17;;;17.93;;
13250;SDS011;6692;50.710;7.180;2023-03-01T10:52:37;23.58;;;17.98;;
13250;SDS011;6692;50.710;7.180;2023-03-01T10:54:37;24.52;;;16.85;;
13250;SDS011;6692;50.710;7.180;2023-03-01T10:58:57;22.87;;;16.87;;
13250;SDS011;6692;50.710;7.180;2023-03-01T11:00:59;24.77;;;17.05;;
13250;SDS011;6692;50.710;7.180;2023-03-01T11:03:03;22.70;;;17.30;;
13250;SDS011;6692;50.710;7.180;2023-03-01T11:05:15;22.87;;;17.17;;
13250;SDS011;6692;50.710;7.180;2023-03-01T11:07:09;22.60;;;16.25;;
13250;SDS011;6692;50.710;7.180;2023-03-01T11:09:14;20.67;;;15.80;;
13250;SDS011;6692;50.710;7.180;2023-03-01T11:11:19;21.80;;;16.15;;
13250;SDS011;6692;50.710;7.180;2023-03-01T11:13:18;20.27;;;14.90;;
13250;SDS011;6692;50.710;7.180;2023-03-01T11:15:22;20.43;;;15.17;;
13250;SDS011;6692;50.710;7.180;2023-03-01T11:17:27;23.42;;;17.50;;
13250;SDS011;6692;50.710;7.180;2023-03-01T11:19:25;21.77;;;16.10;;
13250;SDS011;6692;50.710;7.180;2023-03-01T11:21:26;19.20;;;15.80;;
13250;SDS011;6692;50.710;7.180;2023-03-01T11:23:27;23.63;;;16.80;;
13250;SDS011;6692;50.710;7.180;2023-03-01T11:25:29;18.77;;;14.23;;
13250;SDS011;6692;50.710;7.180;2023-03-01T11:27:29;21.07;;;15.77;;
13250;SDS011;6692;50.710;7.180;2023-03-01T11:29:34;19.73;;;15.67;;
13250;SDS011;6692;50.710;7.180;2023-03-01T11:31:32;19.17;;;14.75;;
13250;SDS011;6692;50.710;7.180;2023-03-01T11:33:37;19.77;;;14.87;;
13250;SDS011;6692;50.710;7.180;2023-03-01T11:35:42;18.05;;;13.88;;
13250;SDS011;6692;50.710;7.180;2023-03-01T11:37:46;19.12;;;14.80;;
13250;SDS011;6692;50.710;7.180;2023-03-01T11:39:48;18.50;;;14.93;;
13250;SDS011;6692;50.710;7.180;2023-03-01T11:41:48;20.12;;;15.27;;
13250;SDS011;6692;50.710;7.180;2023-03-01T11:46:59;20.02;;;14.90;;
13250;SDS011;6692;50.710;7.180;2023-03-01T11:48:45;19.48;;;14.73;;
13250;SDS011;6692;50.710;7.180;2023-03-01T11:50:46;17.98;;;14.43;;
13250;SDS011;6692;50.710;7.180;2023-03-01T11:53:02;17.30;;;13.35;;
13250;SDS011;6692;50.710;7.180;2023-03-01T11:55:14;17.35;;;13.45;;
13250;SDS011;6692;50.710;7.180;2023-03-01T11:57:35;17.37;;;12.95;;
13250;SDS011;6692;50.710;7.180;2023-03-01T11:59:44;15.50;;;12.13;;
13250;SDS011;6692;50.710;7.180;2023-03-01T12:01:59;17.83;;;13.02;;
13250;SDS011;6692;50.710;7.180;2023-03-01T12:04:30;18.45;;;13.50;;
13250;SDS011;6692;50.710;7.180;2023-03-01T12:06:54;17.80;;;12.90;;
13250;SDS011;6692;50.710;7.180;2023-03-01T12:12:01;17.40;;;12.88;;
13250;SDS011;6692;50.710;7.180;2023-03-01T12:15:02;15.52;;;12.82;;
13250;SDS011;6692;50.710;7.180;2023-03-01T12:18:40;15.95;;;12.60;;
13250;SDS011;6692;50.710;7.180;2023-03-01T12:23:16;17.35;;;13.48;;
13250;SDS011;6692;50.710;7.180;2023-03-01T12:25:25;15.88;;;12.35;;
13250;SDS011;6692;50.710;7.180;2023-03-01T12:27:42;14.48;;;11.55;;
13250;SDS011;6692;50.710;7.180;2023-03-01T12:29:59;13.77;;;11.38;;
13250;SDS011;6692;50.710;7.180;2023-03-01T12:34:22;16.35;;;12.27;;
13250;SDS011;6692;50.710;7.180;2023-03-01T12:36:40;13.70;;;10.73;;
13250;SDS011;6692;50.710;7.180;2023-03-01T12:38:46;15.50;;;11.45;;
13250;SDS011;6692;50.710;7.180;2023-03-01T12:43:03;16.08;;;12.13;;
13250;SDS011;6692;50.710;7.180;2023-03-01T12:47:25;13.98;;;11.43;;